KILG/ILG METAR and TAF weather

Enter ICAO airport designator
Station Type Date Time Source
KILG METAR 2022/11/30 17:51 UTC NOAA

KILG 301751Z 20013KT 6SM -RA BR OVC010 13/11 A2979 RMK AO2 CIG 007V015 SLP088 P0004 60037 T01280111 10128 20078 56055 $


Station Type Date Time Source
KILG Decoded METAR 2022/11/30 17:51 UTC NOAA

WILMINGTON NEW CASTLE CO, DE, United States (KILG) 39-40N 075-36W 28M
Nov 30, 2022 - 12:51 PM EST / 2022.11.30 1751 UTC
Wind: from the SSW (200 degrees) at 15 MPH (13 KT):0
Visibility: 6 mile(s):0
Sky conditions: overcast
Weather: light rain; mist
Precipitation last hour: 0.04 inches
Temperature: 55.0 F (12.8 C)
Dew Point: 52.0 F (11.1 C)
Relative Humidity: 89%
Pressure (altimeter): 29.79 in. Hg (1008 hPa)
Pressure tendency: 0.16 inches (5.5 hPa) lower than three hours ago
ob: KILG 301751Z 20013KT 6SM -RA BR OVC010 13/11 A2979 RMK AO2 CIG 007V015 SLP088 P0004 60037 T01280111 10128 20078 56055
cycle: 18

Station Type Date Time Source
KILG TAF 2022/11/30 18:33 UTC NOAA

TAF KILG 301730Z 3018/0118 19016G25KT 5SM -SHRA BR OVC008
FM302100 25019G38KT 5SM -SHRA BR OVC010
TEMPO 3021/3023 2SM +RA BR OVC008
FM302300 28017G34KT P6SM BKN035
FM010300 28012G25KT P6SM SCT035

Example: see airport list